Time;durP1;ratioP1;P1;durP2;ratioP2;P2;SDS_P1;SDS_P2;PMS_P1;PMS_P2;Temp;Humidity;BMP_temperature;BMP_pressure;BME280_temperature;BME280_humidity;BME280_pressure;Samples;Min_cycle;Max_cycle;Signal;HPM_P1;HPM_P2
2022/03/02 00:00:08;;;;;;;1.85;1.75;;;1.70;99.90;;;-143.19;100.00;53775.09;4922366;28;20201;-67
2022/03/02 00:02:37;;;;;;;1.33;1.23;;;1.70;99.90;;;-143.19;100.00;53775.09;4919672;28;20212;-68
2022/03/02 00:05:07;;;;;;;1.00;1.00;;;1.70;99.90;;;-143.19;100.00;53775.09;4918994;28;20231;-67
2022/03/02 00:07:35;;;;;;;0.85;0.85;;;1.70;99.90;;;-143.19;100.00;53775.09;4926047;29;20216;-67
2022/03/02 00:10:04;;;;;;;0.90;0.90;;;1.70;99.90;;;-143.19;100.00;53775.09;4922594;28;20277;-68
2022/03/02 00:12:33;;;;;;;0.90;0.90;;;1.70;99.90;;;-143.19;100.00;53775.09;4938237;28;20232;-67
2022/03/02 00:15:02;;;;;;;1.17;1.17;;;1.70;99.90;;;-143.19;100.00;53775.09;4935140;28;20237;-67
2022/03/02 00:17:30;;;;;;;0.63;0.63;;;1.70;99.90;;;-143.19;100.00;53775.09;4913664;28;20201;-67
2022/03/02 00:19:59;;;;;;;0.95;0.95;;;1.70;99.90;;;-143.19;100.00;53775.09;4967347;28;20220;-67
2022/03/02 00:22:27;;;;;;;1.00;1.00;;;2.10;99.90;;;-143.19;100.00;53775.09;4957959;28;20213;-67
2022/03/02 00:24:55;;;;;;;1.35;1.25;;;1.70;99.90;;;-143.19;100.00;53775.09;4940607;28;20229;-68
2022/03/02 00:27:23;;;;;;;0.70;0.70;;;1.70;99.90;;;-143.19;100.00;53775.09;4936676;28;20200;-68
2022/03/02 00:29:51;;;;;;;1.45;1.35;;;1.80;99.90;;;-143.19;100.00;53775.09;4928621;28;20205;-68
2022/03/02 00:32:20;;;;;;;0.80;0.80;;;1.80;99.90;;;-143.19;100.00;53775.09;4922682;28;20220;-68
2022/03/02 00:34:48;;;;;;;1.42;1.33;;;2.20;99.90;;;-143.19;100.00;53775.09;4934925;28;20238;-68
2022/03/02 00:37:16;;;;;;;0.73;0.73;;;1.80;99.90;;;-143.19;100.00;53775.09;4976136;28;20221;-67
2022/03/02 00:39:45;;;;;;;2.45;2.35;;;1.80;99.90;;;-143.19;100.00;53775.09;4948281;28;20208;-67
2022/03/02 00:42:13;;;;;;;1.35;1.25;;;1.70;99.90;;;-143.19;100.00;53775.09;4921884;28;20213;-68
2022/03/02 00:44:42;;;;;;;1.55;1.45;;;1.90;99.90;;;-143.19;100.00;53775.09;4977399;28;20208;-67
2022/03/02 00:47:10;;;;;;;1.00;1.00;;;1.70;99.90;;;-143.19;100.00;53775.09;4960369;28;20208;-67
2022/03/02 00:49:39;;;;;;;1.10;1.00;;;1.70;99.90;;;-143.19;100.00;53775.09;4960456;28;20201;-67
2022/03/02 00:52:10;;;;;;;1.40;1.30;;;1.60;99.90;;;-143.19;100.00;53775.09;4954593;28;20212;-67
2022/03/02 00:54:39;;;;;;;1.92;1.83;;;1.60;99.90;;;-143.19;100.00;53775.09;4940010;28;20217;-67
2022/03/02 00:57:06;;;;;;;1.02;1.02;;;1.50;99.90;;;-143.19;100.00;53775.09;4908524;28;20220;-68
2022/03/02 00:59:34;;;;;;;0.90;0.90;;;1.60;99.90;;;-143.19;100.00;53775.09;4970749;28;20205;-67
2022/03/02 01:02:03;;;;;;;0.80;0.80;;;1.50;99.90;;;-143.19;100.00;53775.09;4939552;28;20232;-67
2022/03/02 01:04:31;;;;;;;0.90;0.90;;;1.50;99.90;;;-143.19;100.00;53775.09;4913588;28;20226;-69
2022/03/02 01:06:59;;;;;;;0.88;0.88;;;1.50;99.90;;;-143.19;100.00;53775.09;4947591;28;20217;-67
2022/03/02 01:09:27;;;;;;;1.00;1.00;;;1.50;99.90;;;-143.19;100.00;53775.09;4914322;28;20225;-67
2022/03/02 01:11:56;;;;;;;0.57;0.57;;;1.50;99.90;;;-143.19;100.00;53775.09;4948218;28;20235;-67
2022/03/02 01:14:25;;;;;;;2.45;2.35;;;1.40;99.90;;;-143.19;100.00;53775.09;4941318;28;20229;-67
2022/03/02 01:16:53;;;;;;;1.60;1.50;;;1.40;99.90;;;-143.19;100.00;53775.09;4952737;28;20222;-67
2022/03/02 01:19:21;;;;;;;0.70;0.70;;;1.40;99.90;;;-143.19;100.00;53775.09;4975197;28;20208;-67
2022/03/02 01:21:49;;;;;;;0.90;0.90;;;1.40;99.90;;;-143.19;100.00;53775.09;4938310;28;20212;-67
2022/03/02 01:24:17;;;;;;;0.80;0.80;;;1.50;99.90;;;-143.19;100.00;53775.09;4954385;28;20213;-67
2022/03/02 01:26:46;;;;;;;1.10;1.10;;;1.40;99.90;;;-143.19;100.00;53775.09;4951459;28;20248;-68
2022/03/02 01:29:14;;;;;;;0.70;0.70;;;1.40;99.90;;;-143.19;100.00;53775.09;4940967;28;20220;-68
2022/03/02 01:31:42;;;;;;;1.00;1.00;;;1.40;99.90;;;-143.19;100.00;53775.09;4922473;28;20210;-68
2022/03/02 01:34:10;;;;;;;0.70;0.70;;;1.40;99.90;;;-143.19;100.00;53775.09;4960927;28;20233;-67
2022/03/02 01:36:38;;;;;;;0.68;0.68;;;1.40;99.90;;;-143.19;100.00;53775.09;4952534;28;20233;-67
2022/03/02 01:39:06;;;;;;;0.73;0.73;;;1.40;99.90;;;-143.19;100.00;53775.09;4967472;28;20209;-68
2022/03/02 01:41:34;;;;;;;0.80;0.80;;;1.50;99.90;;;-143.19;100.00;53775.09;4937399;28;20204;-67
2022/03/02 01:44:02;;;;;;;1.00;1.00;;;1.60;99.90;;;-143.19;100.00;53775.09;4969582;28;20245;-68
2022/03/02 01:46:30;;;;;;;0.73;0.73;;;1.40;99.90;;;-143.19;100.00;53775.09;4930278;29;20226;-67
2022/03/02 01:48:58;;;;;;;1.33;1.23;;;1.40;99.90;;;-143.19;100.00;53775.09;4933031;28;20221;-67
2022/03/02 01:51:26;;;;;;;0.75;0.75;;;1.50;99.90;;;-143.19;100.00;53775.09;4970776;28;20221;-67
2022/03/02 01:53:54;;;;;;;1.00;1.00;;;1.50;99.90;;;-143.19;100.00;53775.09;4945291;28;20241;-68
2022/03/02 01:56:23;;;;;;;0.80;0.80;;;1.50;99.90;;;-143.19;100.00;53775.09;4944335;28;20239;-68
2022/03/02 01:58:51;;;;;;;1.38;1.27;;;1.50;99.90;;;-143.19;100.00;53775.09;4933807;28;20227;-68
2022/03/02 02:01:19;;;;;;;0.85;0.85;;;1.40;99.90;;;-143.19;100.00;53775.09;4926880;28;20211;-68
2022/03/02 02:03:57;;;;;;;0.90;0.90;;;1.30;99.90;;;-143.19;100.00;53775.09;4937094;28;20205;-68
2022/03/02 02:06:25;;;;;;;0.80;0.80;;;1.10;99.90;;;-143.19;100.00;53775.09;4932816;28;20229;-67
2022/03/02 02:08:53;;;;;;;0.70;0.70;;;1.00;99.90;;;-143.19;100.00;53775.09;4966589;28;20217;-67
2022/03/02 02:11:21;;;;;;;0.65;0.65;;;1.00;99.90;;;-143.19;100.00;53775.09;4919465;28;20212;-67
2022/03/02 02:13:50;;;;;;;1.20;1.10;;;1.00;99.90;;;-143.19;100.00;53775.09;4932340;28;20225;-67
2022/03/02 02:16:21;;;;;;;0.90;0.90;;;1.00;99.90;;;-143.19;100.00;53775.09;4937395;28;20251;-67
2022/03/02 02:18:54;;;;;;;1.25;1.15;;;1.00;99.90;;;-143.19;100.00;53775.09;4933131;28;20209;-67
2022/03/02 02:21:23;;;;;;;0.90;0.90;;;0.90;99.90;;;-143.19;100.00;53775.09;4934139;28;20221;-68
2022/03/02 02:23:51;;;;;;;0.90;0.90;;;1.00;99.90;;;-143.19;100.00;53775.09;4931900;28;20218;-68
2022/03/02 02:26:21;;;;;;;1.23;1.13;;;0.80;99.90;;;-143.19;100.00;53775.09;4946096;28;20248;-69
2022/03/02 02:28:50;;;;;;;0.80;0.80;;;0.90;99.90;;;-143.19;100.00;53775.09;4946468;28;20221;-68
2022/03/02 02:31:18;;;;;;;0.82;0.82;;;0.70;99.90;;;-143.19;100.00;53775.09;4917245;28;20216;-68
2022/03/02 02:33:47;;;;;;;0.98;0.98;;;0.70;99.90;;;-143.19;100.00;53775.09;4933619;28;20213;-68
2022/03/02 02:36:16;;;;;;;0.70;0.70;;;0.70;99.90;;;-143.19;100.00;53775.09;4940107;28;20245;-67
2022/03/02 02:38:43;;;;;;;0.70;0.70;;;0.70;99.90;;;-143.19;100.00;53775.09;4915017;29;20217;-67
2022/03/02 02:41:11;;;;;;;1.48;1.38;;;0.70;99.90;;;-143.19;100.00;53775.09;4965528;28;20235;-68
2022/03/02 02:43:42;;;;;;;0.70;0.70;;;0.50;99.90;;;-143.19;100.00;53775.09;4928291;29;20202;-67
2022/03/02 02:46:11;;;;;;;0.70;0.70;;;0.50;99.90;;;-143.19;100.00;53775.09;4933909;28;20230;-67
2022/03/02 02:48:40;;;;;;;0.70;0.70;;;0.30;99.90;;;-143.19;100.00;53775.09;4925256;28;20224;-67
2022/03/02 02:51:08;;;;;;;0.90;0.90;;;0.20;99.90;;;-143.19;100.00;53775.09;4943314;28;20206;-68
2022/03/02 02:53:36;;;;;;;0.70;0.70;;;0.10;99.90;;;-143.19;100.00;53775.09;4926291;28;20206;-68
2022/03/02 02:56:04;;;;;;;0.88;0.88;;;0.10;99.90;;;-143.19;100.00;53775.09;4932928;28;20233;-68
2022/03/02 02:58:32;;;;;;;0.50;0.50;;;0.10;99.90;;;-143.19;100.00;53775.09;4968556;28;20217;-68
2022/03/02 03:01:00;;;;;;;1.02;1.02;;;0.10;99.90;;;-143.19;100.00;53775.09;4920169;28;20222;-68
2022/03/02 03:03:29;;;;;;;0.70;0.70;;;0.00;99.90;;;-143.19;100.00;53775.09;4939171;29;20202;-67
2022/03/02 03:05:57;;;;;;;0.70;0.70;;;0.00;99.90;;;-143.19;100.00;53775.09;4915555;29;20245;-67
2022/03/02 03:08:25;;;;;;;1.08;1.08;;;0.00;99.90;;;-143.19;100.00;53775.09;4905587;28;20208;-67
2022/03/02 03:10:53;;;;;;;0.90;0.90;;;0.20;99.90;;;-143.19;100.00;53775.09;4920118;28;20217;-67
2022/03/02 03:13:21;;;;;;;0.82;0.82;;;0.00;99.90;;;-143.19;100.00;53775.09;4935727;28;20210;-67
2022/03/02 03:15:49;;;;;;;1.10;1.08;;;-0.10;99.90;;;-143.19;100.00;53775.09;4943647;28;20634;-67
2022/03/02 03:18:17;;;;;;;1.00;1.00;;;-0.10;99.90;;;-143.19;100.00;53775.09;4942253;28;20220;-67
2022/03/02 03:20:45;;;;;;;1.15;1.08;;;-0.20;99.90;;;-143.19;100.00;53775.09;4951815;28;20202;-67
2022/03/02 03:23:13;;;;;;;1.10;1.08;;;-0.10;99.90;;;-143.19;100.00;53775.09;4935664;28;20204;-68
2022/03/02 03:25:41;;;;;;;0.70;0.70;;;-0.20;99.90;;;-143.19;100.00;53775.09;4923336;28;20630;-68
2022/03/02 03:28:09;;;;;;;2.45;2.25;;;-0.20;99.90;;;-143.19;100.00;53775.09;4917829;28;20704;-68
2022/03/02 03:30:37;;;;;;;1.33;1.23;;;-0.40;99.90;;;-143.19;100.00;53775.09;4918442;28;20214;-68
2022/03/02 03:33:05;;;;;;;1.70;1.65;;;-0.30;99.90;;;-143.19;100.00;53775.09;4925307;28;20209;-68
2022/03/02 03:35:34;;;;;;;1.20;1.15;;;-0.50;99.90;;;-143.19;100.00;53775.09;4938379;23;20243;-66
2022/03/02 03:38:02;;;;;;;1.27;1.25;;;-0.50;99.90;;;-143.19;100.00;53775.09;4913535;28;20210;-66
2022/03/02 03:40:30;;;;;;;1.42;1.33;;;-0.10;99.90;;;-143.19;100.00;53775.09;4929528;28;20211;-65
2022/03/02 03:42:59;;;;;;;1.30;1.20;;;-0.60;99.90;;;-143.19;100.00;53775.09;4917414;28;20209;-66
2022/03/02 03:45:27;;;;;;;1.33;1.23;;;-0.30;99.90;;;-143.19;100.00;53775.09;4955470;28;20723;-65
2022/03/02 03:47:56;;;;;;;0.88;0.88;;;-0.80;99.90;;;-143.19;100.00;53775.09;4943286;28;20208;-65
2022/03/02 03:50:25;;;;;;;1.40;1.30;;;-0.90;99.90;;;-143.19;100.00;53775.09;4963651;28;20335;-65
2022/03/02 03:52:53;;;;;;;0.80;0.80;;;-1.00;99.90;;;-143.19;100.00;53775.09;4947478;28;20213;-65
2022/03/02 03:55:21;;;;;;;1.25;1.17;;;-1.00;99.90;;;-143.19;100.00;53775.09;4968076;28;20606;-67
2022/03/02 03:57:49;;;;;;;1.00;1.00;;;-1.00;99.90;;;-143.19;100.00;53775.09;4967342;28;20210;-66
2022/03/02 04:00:19;;;;;;;1.38;1.27;;;-0.90;99.90;;;-143.19;100.00;53775.09;4930668;28;20210;-66
2022/03/02 04:02:47;;;;;;;1.40;1.30;;;-1.10;99.90;;;-143.19;100.00;53775.09;4924842;28;20209;-66
2022/03/02 04:05:16;;;;;;;0.80;0.80;;;-1.10;99.90;;;-143.19;100.00;53775.09;4919525;28;20228;-65
2022/03/02 04:07:47;;;;;;;1.52;1.42;;;-1.00;99.90;;;-143.19;100.00;53775.09;4959881;28;20223;-67
2022/03/02 04:10:16;;;;;;;1.33;1.23;;;-1.10;99.90;;;-143.19;100.00;53775.09;4960654;28;20218;-66
2022/03/02 04:12:45;;;;;;;1.48;1.38;;;-1.20;99.90;;;-143.19;100.00;53775.09;4907583;28;20221;-65
2022/03/02 04:15:40;;;;;;;1.58;1.48;;;-1.20;99.90;;;-143.19;100.00;53775.09;4927367;28;20243;-66
2022/03/02 04:18:08;;;;;;;1.20;1.10;;;-1.30;99.90;;;-143.19;100.00;53775.09;4972276;28;20221;-66
2022/03/02 04:20:36;;;;;;;0.90;0.90;;;-1.30;99.90;;;-143.19;100.00;53775.09;4940062;28;20220;-65
2022/03/02 04:23:05;;;;;;;1.00;1.00;;;-1.20;99.90;;;-143.19;100.00;53775.09;4936171;28;20210;-66
2022/03/02 04:25:34;;;;;;;1.00;1.00;;;-1.10;99.90;;;-143.19;100.00;53775.09;4918203;28;20222;-66
2022/03/02 04:28:03;;;;;;;1.60;1.50;;;-1.20;99.90;;;-143.19;100.00;53775.09;4949656;28;20213;-66
2022/03/02 04:30:31;;;;;;;0.80;0.80;;;-1.20;99.90;;;-143.19;100.00;53775.09;4943657;28;20220;-66
2022/03/02 04:33:00;;;;;;;1.27;1.17;;;-1.30;99.90;;;-143.19;100.00;53775.09;4962334;28;20701;-65
2022/03/02 04:35:28;;;;;;;1.05;1.05;;;-0.80;99.90;;;-143.19;100.00;53775.09;4947018;28;20238;-66
2022/03/02 04:37:56;;;;;;;1.17;1.08;;;-1.30;99.90;;;-143.19;100.00;53775.09;4917143;28;20205;-65
2022/03/02 04:40:24;;;;;;;1.55;1.45;;;-1.30;99.90;;;-143.19;100.00;53775.09;4925152;28;20206;-65
2022/03/02 04:42:54;;;;;;;1.05;1.05;;;-1.30;99.90;;;-143.19;100.00;53775.09;4912548;28;20214;-66
2022/03/02 04:45:27;;;;;;;0.93;0.93;;;-1.30;99.90;;;-143.19;100.00;53775.09;4912479;28;20229;-65
2022/03/02 04:47:57;;;;;;;0.93;0.93;;;-1.40;99.90;;;-143.19;100.00;53775.09;4921256;29;20213;-66
2022/03/02 04:50:27;;;;;;;1.40;1.30;;;-1.50;99.90;;;-143.19;100.00;53775.09;4944624;28;20216;-65
2022/03/02 04:52:56;;;;;;;0.90;0.90;;;-1.40;99.90;;;-143.19;100.00;53775.09;4939089;28;20217;-65
2022/03/02 04:55:24;;;;;;;1.17;1.13;;;-1.40;99.90;;;-143.19;100.00;53775.09;4915012;28;20242;-66
2022/03/02 04:57:59;;;;;;;1.00;1.00;;;-1.50;99.90;;;-143.19;100.00;53775.09;4920526;28;20213;-66
2022/03/02 05:00:36;;;;;;;1.27;1.17;;;-1.40;99.90;;;-143.19;100.00;53775.09;4893854;28;20212;-66
2022/03/02 05:03:06;;;;;;;1.10;1.10;;;-1.40;99.90;;;-143.19;100.00;53775.09;4924972;28;20206;-65
2022/03/02 05:05:37;;;;;;;0.93;0.93;;;-1.20;99.90;;;-143.19;100.00;53775.09;4921953;29;20248;-65
2022/03/02 05:08:06;;;;;;;1.25;1.20;;;-1.20;99.90;;;-143.19;100.00;53775.09;4963372;28;20241;-65
2022/03/02 05:10:35;;;;;;;1.58;1.48;;;-1.40;99.90;;;-143.19;100.00;53775.09;4917781;29;20578;-65
2022/03/02 05:13:04;;;;;;;1.08;1.05;;;-1.40;99.90;;;-143.19;100.00;53775.09;4912806;28;20225;-66
2022/03/02 05:15:32;;;;;;;0.77;0.77;;;-1.40;99.90;;;-143.19;100.00;53775.09;4927046;29;20231;-66
2022/03/02 05:18:00;;;;;;;1.13;1.02;;;-1.30;99.90;;;-143.19;100.00;53775.09;4927223;28;20218;-66
2022/03/02 05:20:28;;;;;;;1.38;1.27;;;-1.30;99.90;;;-143.19;100.00;53775.09;4924434;28;20210;-65
2022/03/02 05:22:56;;;;;;;1.30;1.23;;;-1.40;99.90;;;-143.19;100.00;53775.09;4932438;28;20198;-66
2022/03/02 05:25:24;;;;;;;0.85;0.85;;;-1.30;99.90;;;-143.19;100.00;53775.09;4922282;28;20245;-66
2022/03/02 05:27:52;;;;;;;0.65;0.65;;;-1.30;99.90;;;-143.19;100.00;53775.09;4943580;29;20207;-66
2022/03/02 05:30:20;;;;;;;0.90;0.90;;;-1.30;99.90;;;-143.19;100.00;53775.09;4932854;29;20213;-65
2022/03/02 05:32:48;;;;;;;0.90;0.90;;;-1.20;99.90;;;-143.19;100.00;53775.09;4920058;29;20206;-65
2022/03/02 05:35:17;;;;;;;1.35;1.25;;;-1.30;99.90;;;-143.19;100.00;53775.09;4931822;28;20238;-66
2022/03/02 05:37:45;;;;;;;0.80;0.80;;;-1.30;99.90;;;-143.19;100.00;53775.09;4977432;28;20216;-66
2022/03/02 05:40:17;;;;;;;1.10;1.10;;;-1.30;99.90;;;-143.19;100.00;53775.09;4970091;28;20209;-65
2022/03/02 05:42:51;;;;;;;1.00;1.00;;;-1.30;99.90;;;-143.19;100.00;53775.09;4964666;28;20213;-65
2022/03/02 05:45:19;;;;;;;1.23;1.13;;;-1.20;99.90;;;-143.19;100.00;53775.09;4915847;28;20228;-66
2022/03/02 05:47:48;;;;;;;0.88;0.88;;;-1.00;99.90;;;-143.19;100.00;53775.09;4932950;28;20205;-66
2022/03/02 05:50:16;;;;;;;0.90;0.90;;;-1.20;99.90;;;-143.19;100.00;53775.09;4965851;28;20280;-65
2022/03/02 05:52:44;;;;;;;1.15;1.05;;;-1.20;99.90;;;-143.19;100.00;53775.09;4913886;28;20217;-66
2022/03/02 05:55:12;;;;;;;1.27;1.17;;;-1.00;99.90;;;-143.19;100.00;53775.09;4954365;28;20236;-66
2022/03/02 05:57:40;;;;;;;1.13;1.10;;;-1.00;99.90;;;-143.19;100.00;53775.09;4938457;28;20229;-66
2022/03/02 06:00:09;;;;;;;0.98;0.98;;;-1.00;99.90;;;-143.19;100.00;53775.09;4945927;28;20612;-65
2022/03/02 06:02:37;;;;;;;0.70;0.70;;;-0.90;99.90;;;-143.19;100.00;53775.09;4951716;28;20210;-65
2022/03/02 06:05:08;;;;;;;1.02;0.98;;;-0.90;99.90;;;-143.19;100.00;53775.09;4970274;28;20700;-66
2022/03/02 06:07:37;;;;;;;1.40;1.30;;;-0.70;99.90;;;-143.19;100.00;53775.09;4923003;28;20206;-66
2022/03/02 06:10:06;;;;;;;1.35;1.25;;;-0.70;99.90;;;-143.19;100.00;53775.09;4947230;28;20225;-65
2022/03/02 06:12:34;;;;;;;3.20;3.05;;;-0.70;99.90;;;-143.19;100.00;53775.09;4979885;28;20215;-65
2022/03/02 06:15:07;;;;;;;1.30;1.20;;;-0.70;99.90;;;-143.19;100.00;53775.09;4943314;28;20220;-65
2022/03/02 06:17:35;;;;;;;1.00;1.00;;;-0.50;99.90;;;-143.19;100.00;53775.09;4960000;28;20614;-65
2022/03/02 06:20:05;;;;;;;0.70;0.70;;;-0.40;99.90;;;-143.19;100.00;53775.09;4979878;28;20205;-66
2022/03/02 06:22:35;;;;;;;1.00;1.00;;;-0.40;99.90;;;-143.19;100.00;53775.09;4936895;29;20221;-66
2022/03/02 06:25:07;;;;;;;1.13;1.02;;;-0.30;99.90;;;-143.19;100.00;53775.09;4957443;28;20213;-66
2022/03/02 06:27:36;;;;;;;1.85;1.75;;;-0.30;99.90;;;-143.19;100.00;53775.09;4965462;28;20235;-66
2022/03/02 06:30:07;;;;;;;0.80;0.80;;;-0.30;99.90;;;-143.19;100.00;53775.09;4939618;28;20210;-66
2022/03/02 06:32:35;;;;;;;1.05;1.05;;;-0.20;99.90;;;-143.19;100.00;53775.09;4939298;28;20206;-65
2022/03/02 06:35:05;;;;;;;1.05;1.05;;;-0.20;99.90;;;-143.19;100.00;53775.09;4968464;28;20215;-65
2022/03/02 06:37:34;;;;;;;1.27;1.25;;;-0.30;99.90;;;-143.19;100.00;53775.09;4944336;28;20225;-65
2022/03/02 06:40:08;;;;;;;0.88;0.88;;;-0.20;99.90;;;-143.19;100.00;53775.09;4971439;28;20594;-65
2022/03/02 06:42:59;;;;;;;0.80;0.80;;;-0.40;99.90;;;-143.19;100.00;53775.09;4984504;28;20208;-65
2022/03/02 06:45:45;;;;;;;0.73;0.73;;;-0.40;99.90;;;-143.19;100.00;53775.09;4945527;28;20273;-65
2022/03/02 06:48:40;;;;;;;1.20;1.10;;;-0.40;99.90;;;-143.19;100.00;53775.09;4953403;28;20225;-65
2022/03/02 06:51:14;;;;;;;0.80;0.80;;;-0.30;99.90;;;-143.19;100.00;53775.09;4953883;28;20212;-64
2022/03/02 06:53:44;;;;;;;0.90;0.90;;;-0.10;99.90;;;-143.19;100.00;53775.09;4941816;28;20220;-66
2022/03/02 06:56:13;;;;;;;0.90;0.90;;;-0.20;99.90;;;-143.19;100.00;53775.09;4929887;28;20233;-66
2022/03/02 06:58:46;;;;;;;1.13;1.02;;;-0.10;99.90;;;-143.19;100.00;53775.09;4955710;28;20213;-65
2022/03/02 07:01:19;;;;;;;0.80;0.80;;;-0.10;99.90;;;-143.19;100.00;53775.09;4926877;28;20201;-65
2022/03/02 07:03:50;;;;;;;0.80;0.80;;;0.20;99.90;;;-143.19;100.00;53775.09;4951333;28;20201;-65
2022/03/02 07:06:18;;;;;;;0.80;0.80;;;0.00;99.90;;;-143.19;100.00;53775.09;4950665;28;20239;-65
2022/03/02 07:08:48;;;;;;;0.80;0.80;;;0.10;99.90;;;-143.19;100.00;53775.09;4953707;28;20206;-65
2022/03/02 07:11:17;;;;;;;0.80;0.80;;;0.20;99.90;;;-143.19;100.00;53775.09;4960779;28;20201;-66
2022/03/02 07:13:49;;;;;;;1.15;1.05;;;0.30;99.90;;;-143.19;100.00;53775.09;4950449;28;20217;-65
2022/03/02 07:16:21;;;;;;;1.17;1.10;;;0.50;99.90;;;-143.19;100.00;53775.09;4939051;28;20226;-65
2022/03/02 07:18:51;;;;;;;1.35;1.25;;;0.50;99.90;;;-143.19;100.00;53775.09;4941824;28;20213;-65
2022/03/02 07:21:28;;;;;;;1.10;1.10;;;0.60;99.90;;;-143.19;100.00;53775.09;4939177;28;20209;-66
2022/03/02 07:24:14;;;;;;;1.30;1.20;;;0.60;99.90;;;-143.19;100.00;53775.09;4941289;28;20201;-65
2022/03/02 07:26:46;;;;;;;1.58;1.48;;;1.00;99.90;;;-143.19;100.00;53775.09;4941525;28;20244;-66
2022/03/02 07:29:15;;;;;;;1.00;1.00;;;1.00;99.90;;;-143.19;100.00;53775.09;4941638;28;20222;-66
2022/03/02 07:31:45;;;;;;;1.45;1.35;;;1.00;99.90;;;-143.19;100.00;53775.09;4931746;28;20214;-65
2022/03/02 07:34:18;;;;;;;0.73;0.73;;;0.90;99.90;;;-143.19;100.00;53775.09;4960056;28;20214;-66
2022/03/02 07:36:47;;;;;;;0.60;0.60;;;1.10;99.90;;;-143.19;100.00;53775.09;4938033;28;20235;-65
2022/03/02 07:39:14;;;;;;;1.77;1.67;;;1.10;99.90;;;-143.19;100.00;53775.09;4939422;28;20210;-66
2022/03/02 07:41:43;;;;;;;1.63;1.52;;;1.20;99.90;;;-143.19;100.00;53775.09;4931177;28;20209;-65
2022/03/02 07:44:12;;;;;;;2.00;1.90;;;1.40;99.90;;;-143.19;100.00;53775.09;4943465;28;20205;-65
2022/03/02 07:46:40;;;;;;;1.85;1.75;;;1.20;99.90;;;-143.19;100.00;53775.09;4919624;28;20221;-65
2022/03/02 07:49:09;;;;;;;1.00;0.95;;;1.30;99.90;;;-143.19;100.00;53775.09;4950269;28;20216;-65
2022/03/02 07:51:39;;;;;;;2.53;2.42;;;1.40;99.90;;;-143.19;100.00;53775.09;4963496;28;20629;-66
2022/03/02 07:54:09;;;;;;;1.70;1.60;;;1.40;99.90;;;-143.19;100.00;53775.09;4934812;28;20205;-66
2022/03/02 07:56:40;;;;;;;0.75;0.75;;;1.50;99.90;;;-143.19;100.00;53775.09;4951673;28;20236;-67
2022/03/02 07:59:08;;;;;;;1.80;1.70;;;1.70;99.90;;;-143.19;100.00;53775.09;4942598;28;20205;-67
2022/03/02 08:01:40;;;;;;;1.83;1.73;;;1.90;99.90;;;-143.19;100.00;53775.09;4936862;28;20215;-65
2022/03/02 08:04:10;;;;;;;1.35;1.25;;;1.80;99.90;;;-143.19;100.00;53775.09;4934039;28;20212;-65
2022/03/02 08:06:41;;;;;;;1.30;1.20;;;1.80;99.90;;;-143.19;100.00;53775.09;4936579;28;20231;-66
2022/03/02 08:09:11;;;;;;;1.70;1.60;;;1.90;99.90;;;-143.19;100.00;53775.09;4915219;28;20205;-65
2022/03/02 08:11:40;;;;;;;2.55;2.35;;;2.60;99.90;;;-143.19;100.00;53775.09;4938806;28;20226;-66
2022/03/02 08:14:09;;;;;;;0.90;0.90;;;2.10;99.90;;;-143.19;100.00;53775.09;4944594;28;20213;-66
2022/03/02 08:16:37;;;;;;;1.10;1.00;;;2.10;99.90;;;-143.19;100.00;53775.09;4964266;28;20221;-66
2022/03/02 08:19:07;;;;;;;0.90;0.90;;;2.20;99.90;;;-143.19;100.00;53775.09;4935053;28;20209;-65
2022/03/02 08:21:36;;;;;;;1.80;1.70;;;2.20;99.90;;;-143.19;100.00;53775.09;4955463;28;20210;-65
2022/03/02 08:24:08;;;;;;;1.63;1.52;;;2.20;99.90;;;-143.19;100.00;53775.09;4923101;28;20214;-66
2022/03/02 08:26:40;;;;;;;1.48;1.38;;;2.30;99.90;;;-143.19;100.00;53775.09;4957311;28;20217;-67
2022/03/02 08:29:11;;;;;;;1.58;1.48;;;2.30;99.90;;;-143.19;100.00;53775.09;4934464;28;20206;-66
2022/03/02 08:31:42;;;;;;;1.90;1.80;;;2.40;99.90;;;-143.19;100.00;53775.09;4986356;28;20213;-66
2022/03/02 08:34:11;;;;;;;2.03;1.83;;;2.50;99.90;;;-143.19;100.00;53775.09;4932872;28;20211;-65
2022/03/02 08:36:43;;;;;;;1.80;1.70;;;2.60;99.90;;;-143.19;100.00;53775.09;4967025;28;20230;-65
2022/03/02 08:39:14;;;;;;;1.70;1.60;;;2.60;99.90;;;-143.19;100.00;53775.09;4930571;28;20244;-65
2022/03/02 08:41:42;;;;;;;1.73;1.63;;;3.10;99.90;;;-143.19;100.00;53775.09;4920526;28;20233;-67
2022/03/02 08:44:13;;;;;;;1.58;1.48;;;2.60;99.90;;;-143.19;100.00;53775.09;4923210;28;20227;-65
2022/03/02 08:46:46;;;;;;;0.90;0.90;;;2.70;99.90;;;-143.19;100.00;53775.09;4963644;28;20241;-66
2022/03/02 08:49:18;;;;;;;1.00;1.00;;;2.90;99.90;;;-143.19;100.00;53775.09;4966065;28;20210;-66
2022/03/02 08:51:49;;;;;;;1.73;1.63;;;2.90;99.90;;;-143.19;100.00;53775.09;4950584;28;20211;-65
2022/03/02 08:54:19;;;;;;;1.40;1.30;;;3.00;99.90;;;-143.19;100.00;53775.09;4962121;28;20216;-66
2022/03/02 08:56:48;;;;;;;1.33;1.23;;;3.00;99.90;;;-143.19;100.00;53775.09;4933058;28;20233;-66
2022/03/02 08:59:18;;;;;;;1.40;1.30;;;3.00;99.90;;;-143.19;100.00;53775.09;4939620;28;20232;-66
2022/03/02 09:01:53;;;;;;;1.88;1.77;;;3.10;99.90;;;-143.19;100.00;53775.09;4943262;28;20214;-65
2022/03/02 09:04:23;;;;;;;1.30;1.20;;;3.10;99.90;;;-143.19;100.00;53775.09;4924060;29;20675;-65
2022/03/02 09:06:54;;;;;;;2.00;1.90;;;3.20;99.90;;;-143.19;100.00;53775.09;4953513;28;20229;-65
2022/03/02 09:09:22;;;;;;;1.48;1.38;;;3.20;99.90;;;-143.19;100.00;53775.09;4934818;28;20225;-65
2022/03/02 09:11:51;;;;;;;1.30;1.20;;;3.20;99.90;;;-143.19;100.00;53775.09;4915960;28;20213;-65
2022/03/02 09:14:19;;;;;;;1.20;1.10;;;3.30;99.90;;;-143.19;100.00;53775.09;4945263;28;20263;-65
2022/03/02 09:16:48;;;;;;;1.20;1.10;;;3.30;99.90;;;-143.19;100.00;53775.09;4936177;28;20605;-66
2022/03/02 09:19:16;;;;;;;1.08;1.00;;;3.40;99.90;;;-143.19;100.00;53775.09;4940238;28;20233;-65
2022/03/02 09:21:46;;;;;;;1.38;1.27;;;3.50;99.90;;;-143.19;100.00;53775.09;4922558;28;20221;-65
2022/03/02 09:24:16;;;;;;;1.55;1.45;;;3.60;99.90;;;-143.19;100.00;53775.09;4981178;28;20205;-65
2022/03/02 09:26:45;;;;;;;1.10;1.00;;;3.70;99.90;;;-143.19;100.00;53775.09;4942421;28;20235;-65
2022/03/02 09:29:17;;;;;;;0.90;0.90;;;3.90;99.90;;;-143.19;100.00;53775.09;4918217;29;20209;-67
2022/03/02 09:31:50;;;;;;;1.13;1.02;;;4.00;99.90;;;-143.19;100.00;53775.09;4946053;28;20241;-66
2022/03/02 09:34:29;;;;;;;1.40;1.30;;;4.00;99.90;;;-143.19;100.00;53775.09;4937438;28;20232;-66
2022/03/02 09:36:59;;;;;;;1.00;1.00;;;4.00;99.90;;;-143.19;100.00;53775.09;4945908;23;20243;-68
2022/03/02 09:39:27;;;;;;;0.90;0.90;;;4.10;99.90;;;-143.19;100.00;53775.09;4954471;28;20245;-67
2022/03/02 09:42:25;;;;;;;1.20;1.10;;;4.20;99.90;;;-143.19;100.00;53775.09;4950582;28;20737;-67
2022/03/02 09:45:07;;;;;;;0.73;0.73;;;4.20;99.90;;;-143.19;100.00;53775.09;4919279;29;20217;-68
2022/03/02 09:47:49;;;;;;;0.70;0.70;;;4.30;99.90;;;-143.19;100.00;53775.09;4928729;28;20253;-67
2022/03/02 09:50:19;;;;;;;0.70;0.70;;;4.40;99.90;;;-143.19;100.00;53775.09;4941699;28;20213;-67
2022/03/02 09:52:48;;;;;;;0.88;0.88;;;4.50;99.90;;;-143.19;100.00;53775.09;4934832;28;20217;-67
2022/03/02 09:55:22;;;;;;;0.82;0.82;;;4.50;99.90;;;-143.19;100.00;53775.09;4939084;28;20204;-68
2022/03/02 09:57:56;;;;;;;0.90;0.90;;;4.60;99.90;;;-143.19;100.00;53775.09;4934876;29;20222;-68
2022/03/02 10:00:27;;;;;;;0.70;0.70;;;4.70;99.90;;;-143.19;100.00;53775.09;4925783;28;20659;-68
2022/03/02 10:02:59;;;;;;;0.98;0.98;;;4.80;99.90;;;-143.19;100.00;53775.09;4912711;28;20217;-67
2022/03/02 10:05:31;;;;;;;0.80;0.80;;;4.90;99.90;;;-143.19;100.00;53775.09;4949405;28;20212;-67
2022/03/02 10:08:02;;;;;;;1.17;1.08;;;5.10;99.90;;;-143.19;100.00;53775.09;4935797;28;20209;-67
2022/03/02 10:10:36;;;;;;;0.90;0.90;;;5.20;99.90;;;-143.19;100.00;53775.09;4934778;28;20695;-67
2022/03/02 10:13:08;;;;;;;0.80;0.80;;;5.30;99.90;;;-143.19;100.00;53775.09;4936499;29;20213;-67